createdAt,value
2019-04-26T00:00:07.523Z,100460.48
2019-04-26T00:02:42.671Z,100457.70
2019-04-26T00:05:11.160Z,100451.38
2019-04-26T00:07:40.798Z,100458.51
2019-04-26T00:10:20.006Z,100458.48
2019-04-26T00:12:56.078Z,100456.81
2019-04-26T00:15:43.761Z,100455.44
2019-04-26T00:18:12.817Z,100449.94
2019-04-26T00:20:41.360Z,100447.19
2019-04-26T00:23:10.821Z,100449.08
2019-04-26T00:25:40.021Z,100442.50
2019-04-26T00:28:08.949Z,100441.94
2019-04-26T00:30:37.437Z,100431.45
2019-04-26T00:33:05.918Z,100433.61
2019-04-26T00:35:46.582Z,100428.39
2019-04-26T00:38:04.857Z,100430.81
2019-04-26T00:40:33.440Z,100433.85
2019-04-26T00:43:02.137Z,100433.28
2019-04-26T00:45:31.087Z,100436.60
2019-04-26T00:47:59.825Z,100437.67
2019-04-26T00:50:28.358Z,100459.66
2019-04-26T00:52:56.814Z,100487.30
2019-04-26T00:55:25.276Z,100508.80
2019-04-26T00:57:53.742Z,100513.65
2019-04-26T01:00:23.594Z,100495.36
2019-04-26T01:02:54.797Z,100473.70
2019-04-26T01:05:23.322Z,100465.00
2019-04-26T01:07:53.865Z,100497.91
2019-04-26T01:10:23.721Z,100513.70
2019-04-26T01:12:52.319Z,100512.86
2019-04-26T01:15:22.024Z,100502.15
2019-04-26T01:17:51.178Z,100496.96
2019-04-26T01:20:20.402Z,100492.34
2019-04-26T01:22:50.127Z,100491.31
2019-04-26T01:25:35.450Z,100480.90
2019-04-26T01:28:03.937Z,100475.61
2019-04-26T01:30:32.478Z,100477.41
2019-04-26T01:33:01.131Z,100482.41
2019-04-26T01:35:29.594Z,100486.78
2019-04-26T01:37:58.386Z,100486.29
2019-04-26T01:40:28.545Z,100480.50
2019-04-26T01:43:04.418Z,100469.78
2019-04-26T01:45:43.764Z,100460.64
2019-04-26T01:48:37.210Z,100462.43
2019-04-26T01:51:05.896Z,100473.55
2019-04-26T01:53:34.489Z,100477.83
2019-04-26T01:56:02.952Z,100478.76
2019-04-26T01:58:31.457Z,100469.29
2019-04-26T02:01:11.795Z,100454.52
2019-04-26T02:03:40.217Z,100426.00
2019-04-26T02:06:08.732Z,100397.66
2019-04-26T02:08:37.169Z,100412.39
2019-04-26T02:11:05.940Z,100436.92
2019-04-26T02:13:34.454Z,100449.57
2019-04-26T02:16:03.089Z,100448.55
2019-04-26T02:18:31.784Z,100436.78
2019-04-26T02:21:27.980Z,100415.91
2019-04-26T02:24:00.960Z,100299.56
2019-04-26T02:26:36.822Z,100424.50
2019-04-26T02:29:06.497Z,100429.41
2019-04-26T02:31:37.461Z,100420.22
2019-04-26T02:34:05.635Z,100408.95
2019-04-26T02:36:55.232Z,100415.67
2019-04-26T02:39:15.962Z,100424.38
2019-04-26T02:41:45.498Z,100420.09
2019-04-26T02:44:13.975Z,100409.70
2019-04-26T02:46:59.010Z,100406.66
2019-04-26T02:49:35.095Z,100418.64
2019-04-26T02:52:22.751Z,100424.30
2019-04-26T02:55:02.425Z,100422.56
2019-04-26T02:57:46.209Z,100421.19
2019-04-26T03:00:14.802Z,100409.56
2019-04-26T03:02:43.933Z,100418.97
2019-04-26T03:05:12.767Z,100409.64
2019-04-26T03:08:09.248Z,100409.59
2019-04-26T03:10:43.415Z,100403.45
2019-04-26T03:13:20.691Z,100405.67
2019-04-26T03:16:01.619Z,100405.23
2019-04-26T03:18:43.868Z,100407.17
2019-04-26T03:21:19.436Z,100412.70
2019-04-26T03:23:59.534Z,100413.63
2019-04-26T03:26:43.340Z,100420.88
2019-04-26T03:29:20.493Z,100422.50
2019-04-26T03:32:05.457Z,100416.67
2019-04-26T03:34:53.914Z,100416.34
2019-04-26T03:37:45.466Z,100398.76
2019-04-26T03:40:29.864Z,100392.84
2019-04-26T03:43:08.535Z,100395.49
2019-04-26T03:45:55.424Z,100391.39
2019-04-26T03:48:51.627Z,100385.73
2019-04-26T03:51:40.743Z,100390.48
2019-04-26T03:54:14.099Z,100390.97
2019-04-26T03:57:14.917Z,100386.33
2019-04-26T04:00:38.882Z,100379.28
2019-04-26T04:03:32.388Z,100381.53
2019-04-26T04:06:00.981Z,100387.39
2019-04-26T04:08:48.106Z,100376.97
2019-04-26T04:11:19.928Z,100380.64
2019-04-26T04:13:53.188Z,100383.28
2019-04-26T04:16:56.755Z,100381.34
2019-04-26T04:19:57.950Z,100386.28
2019-04-26T04:22:29.122Z,100393.87
2019-04-26T04:25:00.653Z,100392.57
2019-04-26T04:27:36.120Z,100388.77
2019-04-26T04:30:35.685Z,100384.72
2019-04-26T04:33:11.357Z,100386.97
2019-04-26T04:35:53.027Z,100388.29
2019-04-26T04:39:12.333Z,100390.14
2019-04-26T04:41:54.231Z,100395.31
2019-04-26T04:44:33.507Z,100390.19
2019-04-26T04:47:24.313Z,100386.92
2019-04-26T04:49:59.611Z,100385.39
2019-04-26T04:53:06.211Z,100380.85
2019-04-26T04:55:53.051Z,100385.28
2019-04-26T04:58:22.906Z,100395.70
2019-04-26T05:01:46.322Z,100394.13
2019-04-26T05:04:24.881Z,100410.33
2019-04-26T05:07:30.770Z,100421.77
2019-04-26T05:10:08.969Z,100421.97
2019-04-26T05:12:47.891Z,100432.09
2019-04-26T05:15:46.430Z,100424.76
2019-04-26T05:18:50.623Z,100414.48
2019-04-26T05:21:57.612Z,100424.02
2019-04-26T05:24:37.951Z,100420.25
2019-04-26T05:27:27.350Z,100421.41
2019-04-26T05:30:22.272Z,100437.35
2019-04-26T05:33:07.256Z,100442.92
2019-04-26T05:36:03.375Z,100420.56
2019-04-26T05:38:59.445Z,100410.56
2019-04-26T05:42:26.740Z,100408.92
2019-04-26T05:45:40.622Z,100412.91
2019-04-26T05:48:41.192Z,100412.12
2019-04-26T05:51:52.009Z,100413.06
2019-04-26T05:55:00.294Z,100325.14
2019-04-26T05:58:01.386Z,100422.75
2019-04-26T06:00:46.591Z,100435.56
2019-04-26T06:04:02.617Z,100433.95
2019-04-26T06:06:36.095Z,100441.64
2019-04-26T06:09:31.608Z,100448.64
2019-04-26T06:12:08.780Z,100458.70
2019-04-26T06:15:00.934Z,100463.56
2019-04-26T06:18:11.378Z,100473.22
2019-04-26T06:21:10.610Z,100466.72
2019-04-26T06:24:19.174Z,100451.08
2019-04-26T06:27:17.449Z,100442.09
2019-04-26T06:29:52.598Z,100436.59
2019-04-26T06:32:32.385Z,100443.29
2019-04-26T06:35:06.924Z,100436.23
2019-04-26T06:37:46.359Z,100433.59
2019-04-26T06:40:20.161Z,100436.28
2019-04-26T06:43:05.146Z,100443.25
2019-04-26T06:46:16.666Z,100447.72
2019-04-26T06:49:17.561Z,100444.44
2019-04-26T06:51:49.939Z,100442.54
2019-04-26T06:54:28.273Z,100434.60
2019-04-26T06:57:48.677Z,100435.50
2019-04-26T07:00:21.682Z,100448.88
2019-04-26T07:03:22.508Z,100465.88
2019-04-26T07:05:53.675Z,100464.39
2019-04-26T07:08:56.641Z,100476.73
2019-04-26T07:11:50.007Z,100483.72
2019-04-26T07:14:43.225Z,100500.95
2019-04-26T07:17:15.733Z,100497.48
2019-04-26T07:20:19.180Z,100496.47
2019-04-26T07:23:33.376Z,100499.52
2019-04-26T07:26:18.975Z,100501.14
2019-04-26T07:29:06.951Z,100505.78
2019-04-26T07:31:44.903Z,100506.27
2019-04-26T07:34:46.954Z,100504.38
2019-04-26T07:38:02.640Z,100507.42
2019-04-26T07:41:01.486Z,100507.12
2019-04-26T07:43:57.249Z,100502.51
2019-04-26T07:47:14.353Z,100515.58
2019-04-26T07:50:24.459Z,100521.56
2019-04-26T07:53:36.596Z,100536.20
2019-04-26T07:56:27.784Z,100532.09
2019-04-26T07:59:37.215Z,100533.84
2019-04-26T08:02:44.522Z,100525.72
2019-04-26T08:05:30.142Z,100523.57
2019-04-26T08:07:59.160Z,100521.19
2019-04-26T08:10:27.774Z,100534.71
2019-04-26T08:13:06.094Z,100525.66
2019-04-26T08:15:53.886Z,100524.35
2019-04-26T08:18:27.440Z,100529.41
2019-04-26T08:21:02.447Z,100531.84
2019-04-26T08:23:42.223Z,100540.38
2019-04-26T08:26:09.204Z,100554.18
2019-04-26T08:28:37.674Z,100534.88
2019-04-26T08:31:07.550Z,100536.25
2019-04-26T08:33:48.231Z,100539.09
2019-04-26T08:36:12.658Z,100531.30
2019-04-26T08:38:41.246Z,100527.86
2019-04-26T08:41:10.021Z,100529.91
2019-04-26T08:43:56.452Z,100548.54
2019-04-26T08:46:38.577Z,100542.37
2019-04-26T08:49:21.633Z,100534.44
2019-04-26T08:51:52.264Z,100531.55
2019-04-26T08:54:23.625Z,100528.39
2019-04-26T08:56:59.876Z,100531.24
2019-04-26T08:59:30.894Z,100539.56
2019-04-26T09:02:26.165Z,100532.02
2019-04-26T09:05:13.904Z,100537.17
2019-04-26T09:07:45.646Z,100540.49
2019-04-26T09:10:15.309Z,100563.40
2019-04-26T09:12:43.778Z,100572.81
2019-04-26T09:15:14.204Z,100570.91
2019-04-26T09:17:42.679Z,100601.38
2019-04-26T09:20:11.163Z,100578.56
2019-04-26T09:22:47.275Z,100578.62
2019-04-26T09:25:30.216Z,100583.73
2019-04-26T09:28:28.216Z,100588.44
2019-04-26T09:31:21.338Z,100586.11
2019-04-26T09:33:53.928Z,100610.92
2019-04-26T09:36:22.377Z,100615.26
2019-04-26T09:38:50.859Z,100623.28
2019-04-26T09:41:19.359Z,100619.00
2019-04-26T09:43:58.731Z,100610.64
2019-04-26T09:46:44.446Z,100602.71
2019-04-26T09:49:24.899Z,100603.23
2019-04-26T09:51:53.361Z,100590.64
2019-04-26T09:54:21.902Z,100612.16
2019-04-26T09:56:50.546Z,100609.48
2019-04-26T09:59:19.001Z,100615.86
2019-04-26T10:01:47.562Z,100632.09
2019-04-26T10:04:16.027Z,100621.21
2019-04-26T10:06:44.917Z,100637.03
2019-04-26T10:09:17.364Z,100650.41
2019-04-26T10:11:50.202Z,100648.17
2019-04-26T10:14:25.873Z,100650.30
2019-04-26T10:17:03.176Z,100658.76
2019-04-26T10:19:37.798Z,100662.38
2019-04-26T10:22:06.334Z,100655.66
2019-04-26T10:24:34.855Z,100658.93
2019-04-26T10:27:04.910Z,100651.86
2019-04-26T10:29:33.365Z,100651.35
2019-04-26T10:32:01.814Z,100656.02
2019-04-26T10:34:30.264Z,100663.25
2019-04-26T10:37:01.530Z,100670.30
2019-04-26T10:39:32.431Z,100672.73
2019-04-26T10:42:00.977Z,100676.87
2019-04-26T10:44:29.507Z,100683.69
2019-04-26T10:46:59.804Z,100688.50
2019-04-26T10:49:58.288Z,100690.47
2019-04-26T10:52:41.685Z,100693.64
2019-04-26T10:55:29.457Z,100689.62
2019-04-26T10:58:08.049Z,100712.48
2019-04-26T11:00:39.220Z,100704.21
2019-04-26T11:03:07.973Z,100705.45
2019-04-26T11:05:36.444Z,100709.24
2019-04-26T11:08:05.099Z,100712.67
2019-04-26T11:10:33.566Z,100710.22
2019-04-26T11:13:02.175Z,100740.59
2019-04-26T11:15:32.713Z,100716.91
2019-04-26T11:18:00.831Z,100734.06
2019-04-26T11:20:29.290Z,100726.68
2019-04-26T11:22:57.742Z,100735.23
2019-04-26T11:25:28.251Z,100744.23
2019-04-26T11:27:56.482Z,100731.00
2019-04-26T11:30:25.126Z,100742.14
2019-04-26T11:32:53.862Z,100740.70
2019-04-26T11:35:22.367Z,100740.21
2019-04-26T11:37:55.206Z,100642.03
2019-04-26T11:40:21.242Z,100724.14
2019-04-26T11:42:49.770Z,100721.41
2019-04-26T11:45:18.392Z,100726.30
2019-04-26T11:47:55.860Z,100720.70
2019-04-26T11:50:17.846Z,100718.03
2019-04-26T11:52:46.352Z,100708.04
2019-04-26T11:55:15.037Z,100720.12
2019-04-26T11:57:47.018Z,100711.39
2019-04-26T12:00:21.441Z,100717.06
2019-04-26T12:02:50.767Z,100711.13
2019-04-26T12:05:42.429Z,100716.73
2019-04-26T12:08:13.859Z,100714.77
2019-04-26T12:10:44.347Z,100718.15
2019-04-26T12:13:12.578Z,100720.45
2019-04-26T12:15:43.826Z,100709.38
2019-04-26T12:18:11.335Z,100696.34
2019-04-26T12:20:39.852Z,100683.88
2019-04-26T12:23:08.329Z,100676.44
2019-04-26T12:25:38.858Z,100680.38
2019-04-26T12:28:07.492Z,100697.73
2019-04-26T12:30:36.012Z,100707.74
2019-04-26T12:33:04.485Z,100718.08
2019-04-26T12:35:32.973Z,100713.48
2019-04-26T12:38:01.513Z,100715.36
2019-04-26T12:40:29.977Z,100712.41
2019-04-26T12:42:58.573Z,100732.84
2019-04-26T12:45:47.414Z,100726.04
2019-04-26T12:48:16.843Z,100728.56
2019-04-26T12:50:45.318Z,100710.08
2019-04-26T12:53:14.242Z,100709.90
2019-04-26T12:55:42.757Z,100729.78
2019-04-26T12:58:15.209Z,100736.04
2019-04-26T13:00:53.205Z,100732.59
2019-04-26T13:03:20.115Z,100733.83
2019-04-26T13:05:42.353Z,100743.28
2019-04-26T13:08:13.099Z,100744.95
2019-04-26T13:10:56.399Z,100790.11
2019-04-26T13:13:46.732Z,100747.91
2019-04-26T13:16:52.434Z,100757.48
2019-04-26T13:19:21.141Z,100758.39
2019-04-26T13:21:49.818Z,100764.33
2019-04-26T13:24:18.361Z,100754.47
2019-04-26T13:26:46.822Z,100752.23
2019-04-26T13:29:15.392Z,100748.30
2019-04-26T13:31:43.847Z,100746.61
2019-04-26T13:34:12.309Z,100753.85
2019-04-26T13:36:42.009Z,100745.02
2019-04-26T13:39:13.340Z,100752.66
2019-04-26T13:41:43.077Z,100751.19
2019-04-26T13:44:11.565Z,100741.03
2019-04-26T13:46:52.109Z,100754.42
2019-04-26T13:49:48.206Z,100768.35
2019-04-26T13:52:15.764Z,100778.00
2019-04-26T13:54:44.257Z,100779.95
2019-04-26T13:57:12.705Z,100778.19
2019-04-26T13:59:41.202Z,100791.84
2019-04-26T14:02:11.849Z,100778.98
2019-04-26T14:04:41.084Z,100786.74
2019-04-26T14:07:10.349Z,100783.20
2019-04-26T14:09:38.849Z,100796.77
2019-04-26T14:12:18.338Z,100782.37
2019-04-26T14:14:38.724Z,100783.08
2019-04-26T14:17:07.254Z,100795.41
2019-04-26T14:19:35.685Z,100788.58
2019-04-26T14:22:07.028Z,100810.34
2019-04-26T14:24:48.894Z,100817.56
2019-04-26T14:27:41.164Z,100796.66
2019-04-26T14:30:09.848Z,100809.64
2019-04-26T14:32:38.758Z,100804.38
2019-04-26T14:35:07.335Z,100803.69
2019-04-26T14:37:35.785Z,100794.26
2019-04-26T14:40:16.799Z,100804.58
2019-04-26T14:42:42.003Z,100802.31
2019-04-26T14:45:07.103Z,100805.05
2019-04-26T14:47:46.841Z,100820.30
2019-04-26T14:50:13.751Z,100799.53
2019-04-26T14:52:36.465Z,100799.67
2019-04-26T14:55:06.016Z,100820.84
2019-04-26T14:57:34.522Z,100793.41
2019-04-26T15:00:04.986Z,100791.55
2019-04-26T15:02:56.108Z,100788.33
2019-04-26T15:05:46.221Z,100805.06
2019-04-26T15:08:13.321Z,100793.53
2019-04-26T15:10:46.622Z,100801.50
2019-04-26T15:13:19.980Z,100797.35
2019-04-26T15:15:45.960Z,100811.60
2019-04-26T15:18:13.154Z,100809.87
2019-04-26T15:20:41.625Z,100823.70
2019-04-26T15:23:10.272Z,100829.17
2019-04-26T15:25:41.437Z,100833.45
2019-04-26T15:28:12.025Z,100833.89
2019-04-26T15:30:45.998Z,100840.73
2019-04-26T15:33:12.770Z,100843.47
2019-04-26T15:35:39.974Z,100843.41
2019-04-26T15:38:08.651Z,100847.88
2019-04-26T15:40:56.224Z,100865.61
2019-04-26T15:43:50.209Z,100859.96
2019-04-26T15:46:35.752Z,100875.64
2019-04-26T15:49:34.236Z,100881.90
2019-04-26T15:52:00.790Z,100888.22
2019-04-26T15:54:29.622Z,100901.80
2019-04-26T15:56:58.213Z,100901.20
2019-04-26T15:59:26.713Z,100895.97
2019-04-26T16:01:56.357Z,100895.58
2019-04-26T16:04:25.186Z,100897.78
2019-04-26T16:06:53.660Z,100896.45
2019-04-26T16:09:22.960Z,100888.31
2019-04-26T16:11:53.115Z,100877.12
2019-04-26T16:14:26.461Z,100888.55
2019-04-26T16:16:52.532Z,100883.11
2019-04-26T16:19:20.971Z,100881.74
2019-04-26T16:21:54.074Z,100899.40
2019-04-26T16:24:19.857Z,100893.34
2019-04-26T16:26:54.054Z,100900.50
2019-04-26T16:29:32.415Z,100907.65
2019-04-26T16:32:12.460Z,100905.39
2019-04-26T16:34:47.656Z,100905.48
2019-04-26T16:37:15.076Z,100921.37
2019-04-26T16:39:46.128Z,100930.50
2019-04-26T16:42:13.978Z,100927.68
2019-04-26T16:44:45.114Z,100928.44
2019-04-26T16:47:13.299Z,100934.66
2019-04-26T16:49:44.168Z,100940.58
2019-04-26T16:52:13.994Z,100933.86
2019-04-26T16:54:42.591Z,100927.93
2019-04-26T16:57:12.301Z,100927.12
2019-04-26T16:59:47.400Z,100942.88
2019-04-26T17:02:15.622Z,100933.34
2019-04-26T17:04:43.401Z,100938.98
2019-04-26T17:07:13.439Z,100944.77
2019-04-26T17:09:55.776Z,100947.20
2019-04-26T17:12:15.012Z,100945.23
2019-04-26T17:14:47.841Z,100939.45
2019-04-26T17:17:14.185Z,100945.63
2019-04-26T17:19:43.245Z,100958.36
2019-04-26T17:22:24.706Z,100954.72
2019-04-26T17:25:17.054Z,100952.09
2019-04-26T17:27:47.155Z,100957.44
2019-04-26T17:30:19.594Z,100937.97
2019-04-26T17:32:51.733Z,100934.38
2019-04-26T17:35:19.306Z,100937.55
2019-04-26T17:37:47.789Z,100929.75
2019-04-26T17:40:16.401Z,100925.40
2019-04-26T17:42:44.893Z,100921.21
2019-04-26T17:45:13.567Z,100947.05
2019-04-26T17:47:42.525Z,100959.75
2019-04-26T17:50:11.067Z,100961.45
2019-04-26T17:52:40.921Z,100964.80
2019-04-26T17:55:11.913Z,100969.61
2019-04-26T17:57:42.350Z,100966.05
2019-04-26T18:00:13.767Z,100963.43
2019-04-26T18:02:45.988Z,100973.09
2019-04-26T18:05:12.907Z,100964.81
2019-04-26T18:07:45.869Z,100966.57
2019-04-26T18:10:11.211Z,100955.80
2019-04-26T18:12:40.970Z,100943.02
2019-04-26T18:15:11.908Z,100938.61
2019-04-26T18:17:57.303Z,100947.93
2019-04-26T18:20:44.903Z,100957.25
2019-04-26T18:23:15.360Z,100962.06
2019-04-26T18:25:45.087Z,100976.84
2019-04-26T18:28:16.062Z,100971.83
2019-04-26T18:30:47.490Z,100974.55
2019-04-26T18:33:17.547Z,100971.30
2019-04-26T18:35:49.069Z,100970.45
2019-04-26T18:38:15.661Z,100963.24
2019-04-26T18:40:59.859Z,100969.20
2019-04-26T18:43:18.798Z,100979.87
2019-04-26T18:45:46.408Z,100985.87
2019-04-26T18:48:15.127Z,100979.37
2019-04-26T18:50:45.737Z,100975.47
2019-04-26T18:53:36.700Z,100965.94
2019-04-26T18:56:03.377Z,100968.48
2019-04-26T18:58:34.758Z,100972.01
2019-04-26T19:01:05.205Z,100972.86
2019-04-26T19:03:33.789Z,100973.77
2019-04-26T19:06:04.474Z,100977.67
2019-04-26T19:08:43.894Z,100979.84
2019-04-26T19:11:07.220Z,100980.51
2019-04-26T19:13:53.141Z,100977.41
2019-04-26T19:16:34.213Z,100980.40
2019-04-26T19:19:22.814Z,100982.05
2019-04-26T19:21:54.518Z,100980.80
2019-04-26T19:24:23.179Z,100977.96
2019-04-26T19:26:51.771Z,100980.88
2019-04-26T19:29:27.418Z,100980.17
2019-04-26T19:31:52.258Z,100982.90
2019-04-26T19:34:21.919Z,100985.61
2019-04-26T19:36:52.332Z,100992.25
2019-04-26T19:39:31.644Z,101006.09
2019-04-26T19:41:57.469Z,101007.45
2019-04-26T19:44:24.112Z,101000.03
2019-04-26T19:47:14.117Z,101007.30
2019-04-26T19:50:09.485Z,101006.05
2019-04-26T19:52:44.856Z,101007.80
2019-04-26T19:55:31.861Z,101017.88
2019-04-26T19:58:09.810Z,101015.45
2019-04-26T20:00:38.478Z,101009.83
2019-04-26T20:03:08.640Z,101018.17
2019-04-26T20:05:40.611Z,101017.14
2019-04-26T20:08:07.487Z,101015.16
2019-04-26T20:10:40.496Z,101005.63
2019-04-26T20:13:07.998Z,101003.20
2019-04-26T20:15:36.661Z,101011.13
2019-04-26T20:18:05.421Z,101003.81
2019-04-26T20:20:36.291Z,100997.20
2019-04-26T20:23:07.675Z,101013.17
2019-04-26T20:25:34.354Z,101018.80
2019-04-26T20:28:03.311Z,101011.88
2019-04-26T20:30:46.367Z,101029.71
2019-04-26T20:33:14.879Z,101017.80
2019-04-26T20:35:43.363Z,101029.20
2019-04-26T20:38:12.014Z,101021.13
2019-04-26T20:40:43.437Z,101018.21
2019-04-26T20:43:20.904Z,101021.33
2019-04-26T20:45:42.535Z,101033.08
2019-04-26T20:48:11.236Z,101033.27
2019-04-26T20:50:41.254Z,101035.37
2019-04-26T20:53:11.876Z,101041.13
2019-04-26T20:55:39.988Z,101041.06
2019-04-26T20:58:08.824Z,101046.61
2019-04-26T21:00:37.849Z,101044.42
2019-04-26T21:03:06.408Z,101045.61
2019-04-26T21:05:45.699Z,101041.83
2019-04-26T21:08:05.326Z,101046.53
2019-04-26T21:10:35.964Z,101047.54
2019-04-26T21:13:04.025Z,101051.21
2019-04-26T21:15:35.861Z,101048.25
2019-04-26T21:18:04.243Z,101054.27
2019-04-26T21:20:36.406Z,101047.34
2019-04-26T21:23:03.791Z,101058.41
2019-04-26T21:25:45.747Z,101066.91
2019-04-26T21:28:23.361Z,101077.94
2019-04-26T21:31:03.450Z,101086.05
2019-04-26T21:33:39.271Z,101101.36
2019-04-26T21:36:27.785Z,101103.58
2019-04-26T21:39:14.994Z,101100.42
2019-04-26T21:41:45.169Z,101091.63
2019-04-26T21:44:15.802Z,101068.08
2019-04-26T21:46:44.386Z,101067.52
2019-04-26T21:49:20.004Z,101059.58
2019-04-26T21:51:44.697Z,101053.72
2019-04-26T21:54:14.388Z,101056.66
2019-04-26T21:56:48.472Z,101049.95
2019-04-26T21:59:14.518Z,101043.03
2019-04-26T22:01:43.489Z,101033.01
2019-04-26T22:04:13.300Z,101019.64
2019-04-26T22:06:41.766Z,101012.73
2019-04-26T22:09:36.828Z,101009.31
2019-04-26T22:12:06.999Z,101005.74
2019-04-26T22:14:37.239Z,101001.03
2019-04-26T22:17:10.330Z,100998.61
2019-04-26T22:20:06.709Z,100994.34
2019-04-26T22:22:52.926Z,100988.16
2019-04-26T22:25:23.172Z,101004.79
2019-04-26T22:27:54.014Z,101030.66
2019-04-26T22:30:28.496Z,101030.24
2019-04-26T22:32:58.387Z,101044.48
2019-04-26T22:35:26.986Z,101055.38
2019-04-26T22:37:55.447Z,101055.27
2019-04-26T22:40:23.925Z,101046.08
2019-04-26T22:42:57.157Z,101040.73
2019-04-26T22:45:53.945Z,101062.92
2019-04-26T22:48:29.830Z,101086.58
2019-04-26T22:50:59.560Z,101087.65
2019-04-26T22:53:28.140Z,101068.19
2019-04-26T22:55:57.802Z,101041.66
2019-04-26T22:58:28.769Z,101025.13
2019-04-26T23:00:58.503Z,101025.02
2019-04-26T23:03:27.282Z,101031.27
2019-04-26T23:05:55.765Z,101026.23
2019-04-26T23:08:24.329Z,101022.81
2019-04-26T23:10:54.540Z,101022.70
2019-04-26T23:13:45.309Z,101017.10
2019-04-26T23:16:34.951Z,101035.00
2019-04-26T23:19:15.297Z,101038.02
2019-04-26T23:21:52.890Z,101038.88
2019-04-26T23:24:17.631Z,101044.77
2019-04-26T23:26:45.408Z,101031.72
2019-04-26T23:29:16.323Z,101025.20
2019-04-26T23:31:44.734Z,101013.58
2019-04-26T23:34:14.265Z,101011.48
2019-04-26T23:36:43.682Z,101010.41
2019-04-26T23:39:13.272Z,101007.28
2019-04-26T23:41:43.068Z,101002.46
2019-04-26T23:44:13.227Z,100999.56
2019-04-26T23:46:43.279Z,100995.77
2019-04-26T23:49:12.023Z,100994.41
2019-04-26T23:51:43.117Z,100992.09
2019-04-26T23:54:10.657Z,100988.86
2019-04-26T23:56:39.138Z,100995.15
2019-04-26T23:59:07.843Z,101000.27
